sensor_id;sensor_type;location;lat;lon;timestamp;P1;durP1;ratioP1;P2;durP2;ratioP2
74626;SDS011;63132;52.268;5.192;2024-03-17T00:01:35;18.27;;;5.20;;
74626;SDS011;63132;52.268;5.192;2024-03-17T00:04:01;12.60;;;4.65;;
74626;SDS011;63132;52.268;5.192;2024-03-17T00:06:26;19.33;;;5.50;;
74626;SDS011;63132;52.268;5.192;2024-03-17T00:08:51;17.13;;;5.40;;
74626;SDS011;63132;52.268;5.192;2024-03-17T00:11:17;12.33;;;5.40;;
74626;SDS011;63132;52.268;5.192;2024-03-17T00:13:42;15.63;;;5.40;;
74626;SDS011;63132;52.268;5.192;2024-03-17T00:16:07;21.30;;;6.10;;
74626;SDS011;63132;52.268;5.192;2024-03-17T00:18:33;23.07;;;7.43;;
74626;SDS011;63132;52.268;5.192;2024-03-17T00:20:58;14.70;;;7.00;;
74626;SDS011;63132;52.268;5.192;2024-03-17T00:23:24;20.15;;;7.47;;
74626;SDS011;63132;52.268;5.192;2024-03-17T00:25:50;16.98;;;6.47;;
74626;SDS011;63132;52.268;5.192;2024-03-17T00:28:16;18.65;;;7.25;;
74626;SDS011;63132;52.268;5.192;2024-03-17T00:30:41;12.70;;;6.15;;
74626;SDS011;63132;52.268;5.192;2024-03-17T00:33:06;14.40;;;6.07;;
74626;SDS011;63132;52.268;5.192;2024-03-17T00:35:32;13.35;;;5.97;;
74626;SDS011;63132;52.268;5.192;2024-03-17T00:37:58;21.35;;;7.15;;
74626;SDS011;63132;52.268;5.192;2024-03-17T00:40:23;27.73;;;6.87;;
74626;SDS011;63132;52.268;5.192;2024-03-17T00:42:48;18.00;;;6.90;;
74626;SDS011;63132;52.268;5.192;2024-03-17T00:45:14;20.63;;;7.57;;
74626;SDS011;63132;52.268;5.192;2024-03-17T00:50:05;29.50;;;8.15;;
74626;SDS011;63132;52.268;5.192;2024-03-17T00:52:36;18.08;;;7.50;;
74626;SDS011;63132;52.268;5.192;2024-03-17T00:55:02;22.73;;;7.28;;
74626;SDS011;63132;52.268;5.192;2024-03-17T00:57:27;13.70;;;7.03;;
74626;SDS011;63132;52.268;5.192;2024-03-17T00:59:53;20.65;;;6.97;;
74626;SDS011;63132;52.268;5.192;2024-03-17T01:02:18;11.87;;;6.90;;
74626;SDS011;63132;52.268;5.192;2024-03-17T01:04:44;24.08;;;7.40;;
74626;SDS011;63132;52.268;5.192;2024-03-17T01:07:10;14.68;;;7.07;;
74626;SDS011;63132;52.268;5.192;2024-03-17T01:09:36;22.15;;;7.40;;
74626;SDS011;63132;52.268;5.192;2024-03-17T01:12:01;17.70;;;6.77;;
74626;SDS011;63132;52.268;5.192;2024-03-17T01:14:27;25.33;;;7.03;;
74626;SDS011;63132;52.268;5.192;2024-03-17T01:16:54;15.57;;;7.28;;
74626;SDS011;63132;52.268;5.192;2024-03-17T01:19:20;19.77;;;7.20;;
74626;SDS011;63132;52.268;5.192;2024-03-17T01:21:45;12.13;;;6.13;;
74626;SDS011;63132;52.268;5.192;2024-03-17T01:24:11;15.83;;;6.43;;
74626;SDS011;63132;52.268;5.192;2024-03-17T01:26:36;16.73;;;6.60;;
74626;SDS011;63132;52.268;5.192;2024-03-17T01:29:01;15.90;;;7.20;;
74626;SDS011;63132;52.268;5.192;2024-03-17T01:31:27;18.23;;;7.63;;
74626;SDS011;63132;52.268;5.192;2024-03-17T01:33:53;16.20;;;6.13;;
74626;SDS011;63132;52.268;5.192;2024-03-17T01:36:18;13.13;;;6.17;;
74626;SDS011;63132;52.268;5.192;2024-03-17T01:38:43;16.67;;;7.07;;
74626;SDS011;63132;52.268;5.192;2024-03-17T01:41:08;17.80;;;6.27;;
74626;SDS011;63132;52.268;5.192;2024-03-17T01:43:34;20.90;;;6.68;;
74626;SDS011;63132;52.268;5.192;2024-03-17T01:46:00;14.73;;;6.63;;
74626;SDS011;63132;52.268;5.192;2024-03-17T01:48:27;17.63;;;6.32;;
74626;SDS011;63132;52.268;5.192;2024-03-17T01:50:53;14.95;;;6.68;;
74626;SDS011;63132;52.268;5.192;2024-03-17T01:53:21;14.65;;;6.53;;
74626;SDS011;63132;52.268;5.192;2024-03-17T01:55:49;18.90;;;7.07;;
74626;SDS011;63132;52.268;5.192;2024-03-17T01:58:14;14.02;;;6.90;;
74626;SDS011;63132;52.268;5.192;2024-03-17T02:00:40;12.60;;;6.88;;
74626;SDS011;63132;52.268;5.192;2024-03-17T02:03:06;15.27;;;7.20;;
74626;SDS011;63132;52.268;5.192;2024-03-17T02:05:33;18.40;;;7.50;;
74626;SDS011;63132;52.268;5.192;2024-03-17T02:07:59;17.05;;;6.95;;
74626;SDS011;63132;52.268;5.192;2024-03-17T02:10:25;20.90;;;9.05;;
74626;SDS011;63132;52.268;5.192;2024-03-17T02:12:50;16.58;;;7.35;;
74626;SDS011;63132;52.268;5.192;2024-03-17T02:15:16;16.65;;;7.38;;
74626;SDS011;63132;52.268;5.192;2024-03-17T02:17:41;19.52;;;7.88;;
74626;SDS011;63132;52.268;5.192;2024-03-17T02:20:07;14.93;;;7.88;;
74626;SDS011;63132;52.268;5.192;2024-03-17T02:22:33;20.98;;;8.15;;
74626;SDS011;63132;52.268;5.192;2024-03-17T02:25:05;21.38;;;8.05;;
74626;SDS011;63132;52.268;5.192;2024-03-17T02:27:33;18.20;;;7.85;;
74626;SDS011;63132;52.268;5.192;2024-03-17T02:29:59;24.23;;;8.23;;
74626;SDS011;63132;52.268;5.192;2024-03-17T02:32:24;21.13;;;7.90;;
74626;SDS011;63132;52.268;5.192;2024-03-17T02:34:52;20.38;;;7.78;;
74626;SDS011;63132;52.268;5.192;2024-03-17T02:37:18;17.48;;;7.63;;
74626;SDS011;63132;52.268;5.192;2024-03-17T02:39:43;17.20;;;8.07;;
74626;SDS011;63132;52.268;5.192;2024-03-17T02:42:09;17.83;;;8.40;;
74626;SDS011;63132;52.268;5.192;2024-03-17T02:44:36;14.30;;;7.63;;
74626;SDS011;63132;52.268;5.192;2024-03-17T02:47:03;24.50;;;8.30;;
74626;SDS011;63132;52.268;5.192;2024-03-17T02:49:30;18.85;;;7.93;;
74626;SDS011;63132;52.268;5.192;2024-03-17T02:52:01;20.20;;;7.82;;
74626;SDS011;63132;52.268;5.192;2024-03-17T02:54:31;17.92;;;7.65;;
74626;SDS011;63132;52.268;5.192;2024-03-17T02:56:57;26.52;;;8.65;;
74626;SDS011;63132;52.268;5.192;2024-03-17T02:59:22;20.13;;;7.88;;
74626;SDS011;63132;52.268;5.192;2024-03-17T03:01:48;15.80;;;7.10;;
74626;SDS011;63132;52.268;5.192;2024-03-17T03:04:13;18.05;;;7.63;;
74626;SDS011;63132;52.268;5.192;2024-03-17T03:09:04;18.38;;;7.30;;
74626;SDS011;63132;52.268;5.192;2024-03-17T03:11:40;24.42;;;7.65;;
74626;SDS011;63132;52.268;5.192;2024-03-17T03:14:06;16.70;;;7.22;;
74626;SDS011;63132;52.268;5.192;2024-03-17T03:18:57;14.48;;;6.90;;
74626;SDS011;63132;52.268;5.192;2024-03-17T03:21:22;16.43;;;7.50;;
74626;SDS011;63132;52.268;5.192;2024-03-17T03:23:48;21.87;;;7.50;;
74626;SDS011;63132;52.268;5.192;2024-03-17T03:26:13;19.33;;;8.18;;
74626;SDS011;63132;52.268;5.192;2024-03-17T03:28:38;20.67;;;7.03;;
74626;SDS011;63132;52.268;5.192;2024-03-17T03:31:04;19.67;;;7.65;;
74626;SDS011;63132;52.268;5.192;2024-03-17T03:33:30;15.25;;;7.53;;
74626;SDS011;63132;52.268;5.192;2024-03-17T03:35:55;17.58;;;7.65;;
74626;SDS011;63132;52.268;5.192;2024-03-17T03:38:21;17.20;;;7.68;;
74626;SDS011;63132;52.268;5.192;2024-03-17T03:40:48;20.48;;;8.00;;
74626;SDS011;63132;52.268;5.192;2024-03-17T03:43:14;15.93;;;7.95;;
74626;SDS011;63132;52.268;5.192;2024-03-17T03:45:39;17.33;;;8.32;;
74626;SDS011;63132;52.268;5.192;2024-03-17T03:48:05;13.55;;;7.68;;
74626;SDS011;63132;52.268;5.192;2024-03-17T03:50:33;16.60;;;7.95;;
74626;SDS011;63132;52.268;5.192;2024-03-17T03:52:58;17.77;;;8.37;;
74626;SDS011;63132;52.268;5.192;2024-03-17T03:55:24;18.00;;;7.87;;
74626;SDS011;63132;52.268;5.192;2024-03-17T03:57:49;20.00;;;8.32;;
74626;SDS011;63132;52.268;5.192;2024-03-17T04:00:17;17.33;;;8.57;;
74626;SDS011;63132;52.268;5.192;2024-03-17T04:02:49;18.75;;;7.85;;
74626;SDS011;63132;52.268;5.192;2024-03-17T04:05:15;18.75;;;7.97;;
74626;SDS011;63132;52.268;5.192;2024-03-17T04:07:41;15.20;;;7.72;;
74626;SDS011;63132;52.268;5.192;2024-03-17T04:10:08;19.20;;;9.73;;
74626;SDS011;63132;52.268;5.192;2024-03-17T04:12:35;13.65;;;7.90;;
74626;SDS011;63132;52.268;5.192;2024-03-17T04:15:00;21.08;;;8.75;;
74626;SDS011;63132;52.268;5.192;2024-03-17T04:17:26;19.58;;;9.23;;
74626;SDS011;63132;52.268;5.192;2024-03-17T04:19:52;18.00;;;8.27;;
74626;SDS011;63132;52.268;5.192;2024-03-17T04:22:18;19.85;;;8.98;;
74626;SDS011;63132;52.268;5.192;2024-03-17T04:24:45;16.48;;;8.25;;
74626;SDS011;63132;52.268;5.192;2024-03-17T04:27:11;19.73;;;9.82;;
74626;SDS011;63132;52.268;5.192;2024-03-17T04:29:38;16.67;;;9.18;;
74626;SDS011;63132;52.268;5.192;2024-03-17T04:34:30;16.13;;;9.40;;
74626;SDS011;63132;52.268;5.192;2024-03-17T04:39:21;19.10;;;9.88;;
74626;SDS011;63132;52.268;5.192;2024-03-17T04:41:50;22.00;;;10.40;;
74626;SDS011;63132;52.268;5.192;2024-03-17T04:44:15;19.50;;;10.48;;
74626;SDS011;63132;52.268;5.192;2024-03-17T04:46:41;18.42;;;9.73;;
74626;SDS011;63132;52.268;5.192;2024-03-17T04:49:06;20.13;;;9.82;;
74626;SDS011;63132;52.268;5.192;2024-03-17T04:51:33;21.08;;;9.60;;
74626;SDS011;63132;52.268;5.192;2024-03-17T04:53:59;17.60;;;10.30;;
74626;SDS011;63132;52.268;5.192;2024-03-17T04:56:24;22.13;;;11.00;;
74626;SDS011;63132;52.268;5.192;2024-03-17T04:58:50;18.23;;;10.10;;
74626;SDS011;63132;52.268;5.192;2024-03-17T05:01:15;16.80;;;9.57;;
74626;SDS011;63132;52.268;5.192;2024-03-17T05:03:41;18.03;;;9.73;;
74626;SDS011;63132;52.268;5.192;2024-03-17T05:06:06;15.17;;;9.43;;
74626;SDS011;63132;52.268;5.192;2024-03-17T05:08:32;19.08;;;8.85;;
74626;SDS011;63132;52.268;5.192;2024-03-17T05:10:59;15.15;;;8.40;;
74626;SDS011;63132;52.268;5.192;2024-03-17T05:13:28;13.32;;;9.20;;
74626;SDS011;63132;52.268;5.192;2024-03-17T05:15:53;13.48;;;8.93;;
74626;SDS011;63132;52.268;5.192;2024-03-17T05:18:19;15.68;;;9.15;;
74626;SDS011;63132;52.268;5.192;2024-03-17T05:20:45;16.70;;;9.23;;
74626;SDS011;63132;52.268;5.192;2024-03-17T05:23:12;14.23;;;8.32;;
74626;SDS011;63132;52.268;5.192;2024-03-17T05:25:38;17.90;;;9.18;;
74626;SDS011;63132;52.268;5.192;2024-03-17T05:28:04;22.52;;;9.45;;
74626;SDS011;63132;52.268;5.192;2024-03-17T05:30:29;17.15;;;9.00;;
74626;SDS011;63132;52.268;5.192;2024-03-17T05:32:55;17.08;;;8.73;;
74626;SDS011;63132;52.268;5.192;2024-03-17T05:35:21;18.38;;;9.43;;
74626;SDS011;63132;52.268;5.192;2024-03-17T05:37:48;19.35;;;10.02;;
74626;SDS011;63132;52.268;5.192;2024-03-17T05:40:13;15.93;;;9.48;;
74626;SDS011;63132;52.268;5.192;2024-03-17T05:42:41;19.43;;;9.40;;
74626;SDS011;63132;52.268;5.192;2024-03-17T05:45:08;19.83;;;10.23;;
74626;SDS011;63132;52.268;5.192;2024-03-17T05:47:37;19.80;;;9.35;;
74626;SDS011;63132;52.268;5.192;2024-03-17T05:50:03;17.05;;;9.57;;
74626;SDS011;63132;52.268;5.192;2024-03-17T05:52:28;16.05;;;9.55;;
74626;SDS011;63132;52.268;5.192;2024-03-17T05:54:54;16.83;;;9.77;;
74626;SDS011;63132;52.268;5.192;2024-03-17T05:57:20;17.27;;;9.27;;
74626;SDS011;63132;52.268;5.192;2024-03-17T05:59:46;20.80;;;10.48;;
74626;SDS011;63132;52.268;5.192;2024-03-17T06:02:12;20.77;;;10.40;;
74626;SDS011;63132;52.268;5.192;2024-03-17T06:04:37;18.97;;;10.23;;
74626;SDS011;63132;52.268;5.192;2024-03-17T06:07:03;16.60;;;10.15;;
74626;SDS011;63132;52.268;5.192;2024-03-17T06:09:29;21.95;;;9.35;;
74626;SDS011;63132;52.268;5.192;2024-03-17T06:11:54;17.93;;;9.40;;
74626;SDS011;63132;52.268;5.192;2024-03-17T06:14:19;16.53;;;9.40;;
74626;SDS011;63132;52.268;5.192;2024-03-17T06:16:45;15.53;;;9.13;;
74626;SDS011;63132;52.268;5.192;2024-03-17T06:21:37;16.73;;;9.40;;
74626;SDS011;63132;52.268;5.192;2024-03-17T06:24:03;16.80;;;9.38;;
74626;SDS011;63132;52.268;5.192;2024-03-17T06:26:31;15.73;;;9.40;;
74626;SDS011;63132;52.268;5.192;2024-03-17T06:28:59;17.15;;;9.98;;
74626;SDS011;63132;52.268;5.192;2024-03-17T06:31:24;16.67;;;9.27;;
74626;SDS011;63132;52.268;5.192;2024-03-17T06:33:49;19.53;;;10.53;;
74626;SDS011;63132;52.268;5.192;2024-03-17T06:36:15;16.38;;;9.50;;
74626;SDS011;63132;52.268;5.192;2024-03-17T06:38:40;16.83;;;9.90;;
74626;SDS011;63132;52.268;5.192;2024-03-17T06:41:06;20.57;;;10.13;;
74626;SDS011;63132;52.268;5.192;2024-03-17T06:43:31;21.38;;;9.85;;
74626;SDS011;63132;52.268;5.192;2024-03-17T06:48:24;21.70;;;10.23;;
74626;SDS011;63132;52.268;5.192;2024-03-17T06:50:50;21.25;;;10.20;;
74626;SDS011;63132;52.268;5.192;2024-03-17T06:53:20;20.60;;;9.93;;
74626;SDS011;63132;52.268;5.192;2024-03-17T06:56:07;14.52;;;9.80;;
74626;SDS011;63132;52.268;5.192;2024-03-17T06:58:33;19.27;;;9.07;;
74626;SDS011;63132;52.268;5.192;2024-03-17T07:01:01;15.07;;;9.55;;
74626;SDS011;63132;52.268;5.192;2024-03-17T07:03:28;16.05;;;9.40;;
74626;SDS011;63132;52.268;5.192;2024-03-17T07:05:58;17.10;;;9.15;;
74626;SDS011;63132;52.268;5.192;2024-03-17T07:08:27;18.70;;;9.63;;
74626;SDS011;63132;52.268;5.192;2024-03-17T07:10:59;17.27;;;9.82;;
74626;SDS011;63132;52.268;5.192;2024-03-17T07:13:33;13.73;;;9.73;;
74626;SDS011;63132;52.268;5.192;2024-03-17T07:16:01;20.33;;;9.50;;
74626;SDS011;63132;52.268;5.192;2024-03-17T07:18:30;15.32;;;9.27;;
74626;SDS011;63132;52.268;5.192;2024-03-17T07:20:56;15.68;;;9.70;;
74626;SDS011;63132;52.268;5.192;2024-03-17T07:23:22;16.17;;;9.02;;
74626;SDS011;63132;52.268;5.192;2024-03-17T07:25:51;15.80;;;10.07;;
74626;SDS011;63132;52.268;5.192;2024-03-17T07:28:20;13.30;;;8.63;;
74626;SDS011;63132;52.268;5.192;2024-03-17T07:30:50;13.05;;;8.80;;
74626;SDS011;63132;52.268;5.192;2024-03-17T07:33:16;13.45;;;7.95;;
74626;SDS011;63132;52.268;5.192;2024-03-17T07:38:17;14.73;;;8.60;;
74626;SDS011;63132;52.268;5.192;2024-03-17T07:40:43;14.38;;;9.07;;
74626;SDS011;63132;52.268;5.192;2024-03-17T07:43:09;12.25;;;8.48;;
74626;SDS011;63132;52.268;5.192;2024-03-17T07:45:35;14.10;;;8.23;;
74626;SDS011;63132;52.268;5.192;2024-03-17T07:48:00;11.95;;;8.23;;
74626;SDS011;63132;52.268;5.192;2024-03-17T07:50:25;11.93;;;8.27;;
74626;SDS011;63132;52.268;5.192;2024-03-17T07:52:51;13.93;;;8.68;;
74626;SDS011;63132;52.268;5.192;2024-03-17T07:55:16;16.67;;;8.13;;
74626;SDS011;63132;52.268;5.192;2024-03-17T07:57:41;15.37;;;8.97;;
74626;SDS011;63132;52.268;5.192;2024-03-17T08:00:07;14.10;;;7.93;;
74626;SDS011;63132;52.268;5.192;2024-03-17T08:02:46;12.05;;;8.80;;
74626;SDS011;63132;52.268;5.192;2024-03-17T08:05:12;14.40;;;8.32;;
74626;SDS011;63132;52.268;5.192;2024-03-17T08:07:37;13.77;;;8.07;;
74626;SDS011;63132;52.268;5.192;2024-03-17T08:10:03;14.73;;;7.97;;
74626;SDS011;63132;52.268;5.192;2024-03-17T08:12:29;16.42;;;9.18;;
74626;SDS011;63132;52.268;5.192;2024-03-17T08:14:54;15.07;;;8.02;;
74626;SDS011;63132;52.268;5.192;2024-03-17T08:17:20;13.38;;;8.35;;
74626;SDS011;63132;52.268;5.192;2024-03-17T08:19:45;17.60;;;9.13;;
74626;SDS011;63132;52.268;5.192;2024-03-17T08:22:10;14.15;;;8.18;;
74626;SDS011;63132;52.268;5.192;2024-03-17T08:24:36;13.65;;;8.30;;
74626;SDS011;63132;52.268;5.192;2024-03-17T08:27:01;13.00;;;8.73;;
74626;SDS011;63132;52.268;5.192;2024-03-17T08:29:26;14.38;;;7.78;;
74626;SDS011;63132;52.268;5.192;2024-03-17T08:31:52;11.32;;;7.57;;
74626;SDS011;63132;52.268;5.192;2024-03-17T08:34:17;16.85;;;8.40;;
74626;SDS011;63132;52.268;5.192;2024-03-17T08:36:43;15.07;;;7.68;;
74626;SDS011;63132;52.268;5.192;2024-03-17T08:39:08;13.33;;;7.87;;
74626;SDS011;63132;52.268;5.192;2024-03-17T08:41:36;16.55;;;9.15;;
74626;SDS011;63132;52.268;5.192;2024-03-17T08:44:01;12.40;;;8.07;;
74626;SDS011;63132;52.268;5.192;2024-03-17T08:46:27;11.52;;;7.45;;
74626;SDS011;63132;52.268;5.192;2024-03-17T08:51:18;11.93;;;7.30;;
74626;SDS011;63132;52.268;5.192;2024-03-17T08:56:08;13.88;;;7.05;;
74626;SDS011;63132;52.268;5.192;2024-03-17T09:01:03;14.57;;;7.60;;
74626;SDS011;63132;52.268;5.192;2024-03-17T09:03:32;14.98;;;8.35;;
74626;SDS011;63132;52.268;5.192;2024-03-17T09:05:58;13.50;;;7.57;;
74626;SDS011;63132;52.268;5.192;2024-03-17T09:10:50;11.75;;;7.25;;
74626;SDS011;63132;52.268;5.192;2024-03-17T09:13:23;12.48;;;7.10;;
74626;SDS011;63132;52.268;5.192;2024-03-17T09:15:49;13.75;;;7.60;;
74626;SDS011;63132;52.268;5.192;2024-03-17T09:18:18;14.43;;;7.80;;
74626;SDS011;63132;52.268;5.192;2024-03-17T09:23:09;11.18;;;7.07;;
74626;SDS011;63132;52.268;5.192;2024-03-17T09:27:59;13.40;;;7.57;;
74626;SDS011;63132;52.268;5.192;2024-03-17T09:32:50;13.13;;;7.47;;
74626;SDS011;63132;52.268;5.192;2024-03-17T09:35:15;12.10;;;7.80;;
74626;SDS011;63132;52.268;5.192;2024-03-17T09:40:08;15.43;;;8.10;;
74626;SDS011;63132;52.268;5.192;2024-03-17T09:42:40;13.05;;;7.57;;
74626;SDS011;63132;52.268;5.192;2024-03-17T09:45:06;16.00;;;8.00;;
74626;SDS011;63132;52.268;5.192;2024-03-17T09:47:32;12.13;;;8.00;;
74626;SDS011;63132;52.268;5.192;2024-03-17T09:52:24;11.20;;;6.90;;
74626;SDS011;63132;52.268;5.192;2024-03-17T09:54:54;10.98;;;7.45;;
74626;SDS011;63132;52.268;5.192;2024-03-17T09:57:24;12.85;;;7.57;;
74626;SDS011;63132;52.268;5.192;2024-03-17T10:02:19;12.45;;;7.53;;
74626;SDS011;63132;52.268;5.192;2024-03-17T10:07:09;12.53;;;7.47;;
74626;SDS011;63132;52.268;5.192;2024-03-17T10:12:01;13.02;;;7.38;;
74626;SDS011;63132;52.268;5.192;2024-03-17T10:16:51;13.30;;;7.43;;
74626;SDS011;63132;52.268;5.192;2024-03-17T10:21:49;11.85;;;7.28;;
74626;SDS011;63132;52.268;5.192;2024-03-17T10:24:25;12.18;;;7.38;;
74626;SDS011;63132;52.268;5.192;2024-03-17T10:26:54;11.77;;;7.95;;
74626;SDS011;63132;52.268;5.192;2024-03-17T10:29:21;13.07;;;7.93;;
74626;SDS011;63132;52.268;5.192;2024-03-17T10:31:58;12.73;;;8.05;;
74626;SDS011;63132;52.268;5.192;2024-03-17T10:34:26;11.88;;;7.13;;
74626;SDS011;63132;52.268;5.192;2024-03-17T10:37:17;15.25;;;7.88;;
74626;SDS011;63132;52.268;5.192;2024-03-17T10:39:52;12.60;;;8.10;;
74626;SDS011;63132;52.268;5.192;2024-03-17T10:42:25;14.27;;;8.38;;
74626;SDS011;63132;52.268;5.192;2024-03-17T10:44:56;11.65;;;8.02;;
74626;SDS011;63132;52.268;5.192;2024-03-17T10:47:23;12.23;;;7.45;;
74626;SDS011;63132;52.268;5.192;2024-03-17T10:49:50;12.00;;;7.32;;
74626;SDS011;63132;52.268;5.192;2024-03-17T10:52:17;13.18;;;8.05;;
74626;SDS011;63132;52.268;5.192;2024-03-17T10:54:47;14.35;;;8.52;;
74626;SDS011;63132;52.268;5.192;2024-03-17T10:59:52;11.20;;;8.13;;
74626;SDS011;63132;52.268;5.192;2024-03-17T11:04:43;15.65;;;7.80;;
74626;SDS011;63132;52.268;5.192;2024-03-17T11:09:38;14.20;;;8.32;;
74626;SDS011;63132;52.268;5.192;2024-03-17T11:12:05;13.98;;;7.78;;
74626;SDS011;63132;52.268;5.192;2024-03-17T11:17:46;14.75;;;7.82;;
74626;SDS011;63132;52.268;5.192;2024-03-17T11:20:13;15.23;;;8.20;;
74626;SDS011;63132;52.268;5.192;2024-03-17T11:22:43;13.20;;;8.20;;
74626;SDS011;63132;52.268;5.192;2024-03-17T11:27:50;14.50;;;7.65;;
74626;SDS011;63132;52.268;5.192;2024-03-17T11:38:50;16.27;;;8.20;;
74626;SDS011;63132;52.268;5.192;2024-03-17T11:47:04;13.25;;;7.78;;
74626;SDS011;63132;52.268;5.192;2024-03-17T11:52:03;15.43;;;7.03;;
74626;SDS011;63132;52.268;5.192;2024-03-17T11:54:42;15.40;;;6.35;;
74626;SDS011;63132;52.268;5.192;2024-03-17T11:57:09;8.35;;;5.75;;
74626;SDS011;63132;52.268;5.192;2024-03-17T11:59:36;10.25;;;5.13;;
74626;SDS011;63132;52.268;5.192;2024-03-17T12:02:02;8.95;;;5.05;;
74626;SDS011;63132;52.268;5.192;2024-03-17T12:04:38;8.60;;;4.20;;
74626;SDS011;63132;52.268;5.192;2024-03-17T12:07:04;7.97;;;4.43;;
74626;SDS011;63132;52.268;5.192;2024-03-17T12:09:37;11.90;;;4.55;;
74626;SDS011;63132;52.268;5.192;2024-03-17T12:14:32;8.10;;;5.07;;
74626;SDS011;63132;52.268;5.192;2024-03-17T12:17:01;10.95;;;4.88;;
74626;SDS011;63132;52.268;5.192;2024-03-17T12:19:28;10.48;;;5.00;;
74626;SDS011;63132;52.268;5.192;2024-03-17T12:21:54;10.55;;;5.25;;
74626;SDS011;63132;52.268;5.192;2024-03-17T12:24:24;10.43;;;5.38;;
74626;SDS011;63132;52.268;5.192;2024-03-17T12:26:53;15.07;;;5.85;;
74626;SDS011;63132;52.268;5.192;2024-03-17T12:29:28;10.73;;;6.10;;
74626;SDS011;63132;52.268;5.192;2024-03-17T12:31:57;8.85;;;5.50;;
74626;SDS011;63132;52.268;5.192;2024-03-17T12:34:25;14.30;;;5.90;;
74626;SDS011;63132;52.268;5.192;2024-03-17T12:36:52;10.88;;;5.18;;
74626;SDS011;63132;52.268;5.192;2024-03-17T12:39:19;13.38;;;6.43;;
74626;SDS011;63132;52.268;5.192;2024-03-17T12:42:00;11.13;;;6.63;;
74626;SDS011;63132;52.268;5.192;2024-03-17T12:44:39;10.93;;;5.95;;
74626;SDS011;63132;52.268;5.192;2024-03-17T12:47:18;13.13;;;6.70;;
74626;SDS011;63132;52.268;5.192;2024-03-17T12:49:45;10.00;;;5.97;;
74626;SDS011;63132;52.268;5.192;2024-03-17T12:52:16;12.20;;;6.88;;
74626;SDS011;63132;52.268;5.192;2024-03-17T12:54:59;9.50;;;6.30;;
74626;SDS011;63132;52.268;5.192;2024-03-17T12:58:06;11.98;;;6.80;;
74626;SDS011;63132;52.268;5.192;2024-03-17T13:01:01;11.25;;;6.38;;
74626;SDS011;63132;52.268;5.192;2024-03-17T13:03:29;12.85;;;6.68;;
74626;SDS011;63132;52.268;5.192;2024-03-17T13:05:58;13.32;;;7.00;;
74626;SDS011;63132;52.268;5.192;2024-03-17T13:08:24;14.02;;;6.80;;
74626;SDS011;63132;52.268;5.192;2024-03-17T13:10:49;10.70;;;6.10;;
74626;SDS011;63132;52.268;5.192;2024-03-17T13:15:41;9.38;;;5.70;;
74626;SDS011;63132;52.268;5.192;2024-03-17T13:18:07;10.57;;;6.50;;
74626;SDS011;63132;52.268;5.192;2024-03-17T13:22:59;17.48;;;7.18;;
74626;SDS011;63132;52.268;5.192;2024-03-17T13:27:54;11.27;;;6.72;;
74626;SDS011;63132;52.268;5.192;2024-03-17T13:32:48;9.73;;;6.50;;
74626;SDS011;63132;52.268;5.192;2024-03-17T13:35:16;16.40;;;7.13;;
74626;SDS011;63132;52.268;5.192;2024-03-17T13:37:45;12.23;;;7.82;;
74626;SDS011;63132;52.268;5.192;2024-03-17T13:40:13;11.63;;;6.82;;
74626;SDS011;63132;52.268;5.192;2024-03-17T13:42:41;9.82;;;6.90;;
74626;SDS011;63132;52.268;5.192;2024-03-17T13:45:09;11.27;;;7.13;;
74626;SDS011;63132;52.268;5.192;2024-03-17T13:47:36;14.52;;;7.00;;
74626;SDS011;63132;52.268;5.192;2024-03-17T13:52:31;12.05;;;7.70;;
74626;SDS011;63132;52.268;5.192;2024-03-17T13:54:57;12.50;;;7.00;;
74626;SDS011;63132;52.268;5.192;2024-03-17T13:59:48;12.77;;;6.20;;
74626;SDS011;63132;52.268;5.192;2024-03-17T14:02:15;13.20;;;6.18;;
74626;SDS011;63132;52.268;5.192;2024-03-17T14:07:06;14.68;;;6.45;;
74626;SDS011;63132;52.268;5.192;2024-03-17T14:11:57;11.48;;;7.07;;
74626;SDS011;63132;52.268;5.192;2024-03-17T14:14:22;14.98;;;6.97;;
74626;SDS011;63132;52.268;5.192;2024-03-17T14:16:48;13.35;;;6.90;;
74626;SDS011;63132;52.268;5.192;2024-03-17T14:21:39;10.57;;;7.07;;
74626;SDS011;63132;52.268;5.192;2024-03-17T14:24:05;14.23;;;7.32;;
74626;SDS011;63132;52.268;5.192;2024-03-17T14:26:32;9.88;;;6.10;;
74626;SDS011;63132;52.268;5.192;2024-03-17T14:29:00;9.68;;;6.13;;
74626;SDS011;63132;52.268;5.192;2024-03-17T14:31:26;9.52;;;6.05;;
74626;SDS011;63132;52.268;5.192;2024-03-17T14:33:54;15.35;;;6.25;;
74626;SDS011;63132;52.268;5.192;2024-03-17T14:36:20;10.98;;;6.38;;
74626;SDS011;63132;52.268;5.192;2024-03-17T14:38:51;13.18;;;5.97;;
74626;SDS011;63132;52.268;5.192;2024-03-17T14:41:17;12.82;;;6.28;;
74626;SDS011;63132;52.268;5.192;2024-03-17T14:43:43;10.55;;;6.38;;
74626;SDS011;63132;52.268;5.192;2024-03-17T14:46:09;9.27;;;5.78;;
74626;SDS011;63132;52.268;5.192;2024-03-17T14:48:37;11.90;;;6.38;;
74626;SDS011;63132;52.268;5.192;2024-03-17T14:51:03;11.02;;;6.65;;
74626;SDS011;63132;52.268;5.192;2024-03-17T14:53:29;9.13;;;6.20;;
74626;SDS011;63132;52.268;5.192;2024-03-17T14:55:54;12.23;;;6.50;;
74626;SDS011;63132;52.268;5.192;2024-03-17T14:58:19;10.18;;;6.82;;
74626;SDS011;63132;52.268;5.192;2024-03-17T15:00:46;10.35;;;6.10;;
74626;SDS011;63132;52.268;5.192;2024-03-17T15:03:11;15.20;;;6.30;;
74626;SDS011;63132;52.268;5.192;2024-03-17T15:05:37;9.75;;;6.75;;
74626;SDS011;63132;52.268;5.192;2024-03-17T15:10:27;9.77;;;6.28;;
74626;SDS011;63132;52.268;5.192;2024-03-17T15:12:53;12.35;;;6.38;;
74626;SDS011;63132;52.268;5.192;2024-03-17T15:17:44;10.60;;;6.20;;
74626;SDS011;63132;52.268;5.192;2024-03-17T15:22:47;10.32;;;6.22;;
74626;SDS011;63132;52.268;5.192;2024-03-17T15:25:17;13.63;;;6.88;;
74626;SDS011;63132;52.268;5.192;2024-03-17T15:30:13;9.10;;;5.85;;
74626;SDS011;63132;52.268;5.192;2024-03-17T15:32:40;12.15;;;6.45;;
74626;SDS011;63132;52.268;5.192;2024-03-17T15:35:07;12.18;;;6.05;;
74626;SDS011;63132;52.268;5.192;2024-03-17T15:39:58;12.43;;;6.73;;
74626;SDS011;63132;52.268;5.192;2024-03-17T15:42:24;14.75;;;6.28;;
74626;SDS011;63132;52.268;5.192;2024-03-17T15:47:15;12.48;;;6.75;;
74626;SDS011;63132;52.268;5.192;2024-03-17T15:52:06;10.30;;;6.23;;
74626;SDS011;63132;52.268;5.192;2024-03-17T15:56:57;11.57;;;6.47;;
74626;SDS011;63132;52.268;5.192;2024-03-17T16:01:48;13.40;;;6.80;;
74626;SDS011;63132;52.268;5.192;2024-03-17T16:04:17;11.43;;;6.43;;
74626;SDS011;63132;52.268;5.192;2024-03-17T16:06:43;13.60;;;6.75;;
74626;SDS011;63132;52.268;5.192;2024-03-17T16:11:37;11.95;;;6.72;;
74626;SDS011;63132;52.268;5.192;2024-03-17T16:14:04;12.55;;;6.00;;
74626;SDS011;63132;52.268;5.192;2024-03-17T16:16:31;11.90;;;6.47;;
74626;SDS011;63132;52.268;5.192;2024-03-17T16:21:22;10.45;;;6.85;;
74626;SDS011;63132;52.268;5.192;2024-03-17T16:26:16;11.27;;;6.72;;
74626;SDS011;63132;52.268;5.192;2024-03-17T16:31:07;11.52;;;7.43;;
74626;SDS011;63132;52.268;5.192;2024-03-17T16:36:02;15.93;;;7.88;;
74626;SDS011;63132;52.268;5.192;2024-03-17T16:38:29;15.98;;;9.85;;
74626;SDS011;63132;52.268;5.192;2024-03-17T16:40:56;15.18;;;8.50;;
74626;SDS011;63132;52.268;5.192;2024-03-17T16:49:22;18.70;;;9.63;;
74626;SDS011;63132;52.268;5.192;2024-03-17T16:51:49;13.13;;;9.43;;
74626;SDS011;63132;52.268;5.192;2024-03-17T16:54:14;14.23;;;9.20;;
74626;SDS011;63132;52.268;5.192;2024-03-17T16:56:41;18.20;;;9.93;;
74626;SDS011;63132;52.268;5.192;2024-03-17T17:01:32;17.13;;;10.65;;
74626;SDS011;63132;52.268;5.192;2024-03-17T17:06:22;15.57;;;9.90;;